sensor_id;sensor_type;location;lat;lon;timestamp;pressure;altitude;pressure_sealevel;temperature;humidity
70521;BME280;58442;52.716;23.560;2023-04-26T00:01:01;100142.05;;;10.41;75.05
70521;BME280;58442;52.716;23.560;2023-04-26T00:03:05;100133.07;;;10.37;75.06
70521;BME280;58442;52.716;23.560;2023-04-26T00:05:08;100140.35;;;10.33;75.06
70521;BME280;58442;52.716;23.560;2023-04-26T00:07:10;100143.36;;;10.28;75.09
70521;BME280;58442;52.716;23.560;2023-04-26T00:09:14;100147.48;;;10.22;75.13
70521;BME280;58442;52.716;23.560;2023-04-26T00:11:16;100142.41;;;10.21;75.19
70521;BME280;58442;52.716;23.560;2023-04-26T00:13:17;100147.00;;;10.17;75.08
70521;BME280;58442;52.716;23.560;2023-04-26T00:15:20;100154.65;;;10.11;75.12
70521;BME280;58442;52.716;23.560;2023-04-26T00:17:27;100155.21;;;10.01;75.21
70521;BME280;58442;52.716;23.560;2023-04-26T00:19:30;100157.35;;;9.92;75.31
70521;BME280;58442;52.716;23.560;2023-04-26T00:21:33;100166.92;;;9.85;75.35
70521;BME280;58442;52.716;23.560;2023-04-26T00:23:35;100177.99;;;9.77;75.45
70521;BME280;58442;52.716;23.560;2023-04-26T00:25:42;100181.70;;;9.69;75.56
70521;BME280;58442;52.716;23.560;2023-04-26T00:27:43;100185.83;;;9.63;75.62
70521;BME280;58442;52.716;23.560;2023-04-26T00:29:45;100191.52;;;9.57;75.56
70521;BME280;58442;52.716;23.560;2023-04-26T00:31:48;100207.27;;;9.52;75.55
70521;BME280;58442;52.716;23.560;2023-04-26T00:33:57;100213.32;;;9.45;75.56
70521;BME280;58442;52.716;23.560;2023-04-26T00:35:58;100211.58;;;9.37;75.53
70521;BME280;58442;52.716;23.560;2023-04-26T00:38:00;100225.41;;;9.32;75.58
70521;BME280;58442;52.716;23.560;2023-04-26T00:40:03;100233.73;;;9.23;75.52
70521;BME280;58442;52.716;23.560;2023-04-26T00:42:12;100238.20;;;9.16;75.59
70521;BME280;58442;52.716;23.560;2023-04-26T00:44:14;100241.16;;;9.11;75.65
70521;BME280;58442;52.716;23.560;2023-04-26T00:46:16;100246.50;;;9.07;75.60
70521;BME280;58442;52.716;23.560;2023-04-26T00:48:18;100252.07;;;8.98;75.54
70521;BME280;58442;52.716;23.560;2023-04-26T00:50:27;100261.62;;;8.92;75.58
70521;BME280;58442;52.716;23.560;2023-04-26T00:52:30;100262.22;;;8.86;75.58
70521;BME280;58442;52.716;23.560;2023-04-26T00:54:32;100270.16;;;8.79;75.42
70521;BME280;58442;52.716;23.560;2023-04-26T00:56:37;100277.63;;;8.69;75.57
70521;BME280;58442;52.716;23.560;2023-04-26T00:58:42;100274.73;;;8.62;75.57
70521;BME280;58442;52.716;23.560;2023-04-26T01:00:43;100280.73;;;8.56;75.53
70521;BME280;58442;52.716;23.560;2023-04-26T01:02:46;100289.02;;;8.47;75.59
70521;BME280;58442;52.716;23.560;2023-04-26T01:04:48;100288.80;;;8.40;75.63
70521;BME280;58442;52.716;23.560;2023-04-26T01:06:57;100284.06;;;8.37;75.68
70521;BME280;58442;52.716;23.560;2023-04-26T01:09:04;100302.46;;;8.31;75.72
70521;BME280;58442;52.716;23.560;2023-04-26T01:11:12;100290.29;;;8.25;75.65
70521;BME280;58442;52.716;23.560;2023-04-26T01:13:15;100293.58;;;8.18;75.70
70521;BME280;58442;52.716;23.560;2023-04-26T01:15:18;100298.87;;;8.15;75.78
70521;BME280;58442;52.716;23.560;2023-04-26T01:17:19;100295.60;;;8.09;75.79
70521;BME280;58442;52.716;23.560;2023-04-26T01:19:22;100298.09;;;8.02;75.65
70521;BME280;58442;52.716;23.560;2023-04-26T01:21:24;100296.65;;;7.92;75.70
70521;BME280;58442;52.716;23.560;2023-04-26T01:23:31;100306.13;;;7.86;75.82
70521;BME280;58442;52.716;23.560;2023-04-26T01:25:35;100309.05;;;7.81;75.75
70521;BME280;58442;52.716;23.560;2023-04-26T01:27:37;100316.94;;;7.74;75.75
70521;BME280;58442;52.716;23.560;2023-04-26T01:29:40;100314.36;;;7.65;75.75
70521;BME280;58442;52.716;23.560;2023-04-26T01:31:47;100311.30;;;7.55;75.88
70521;BME280;58442;52.716;23.560;2023-04-26T01:33:49;100316.60;;;7.51;76.01
70521;BME280;58442;52.716;23.560;2023-04-26T01:35:51;100314.89;;;7.47;75.97
70521;BME280;58442;52.716;23.560;2023-04-26T01:37:52;100309.73;;;7.42;75.97
70521;BME280;58442;52.716;23.560;2023-04-26T01:40:01;100319.18;;;7.35;75.95
70521;BME280;58442;52.716;23.560;2023-04-26T01:42:06;100326.27;;;7.28;75.97
70521;BME280;58442;52.716;23.560;2023-04-26T01:44:08;100330.51;;;7.17;75.96
70521;BME280;58442;52.716;23.560;2023-04-26T01:46:10;100330.27;;;7.09;76.01
70521;BME280;58442;52.716;23.560;2023-04-26T01:48:16;100339.24;;;7.01;76.05
70521;BME280;58442;52.716;23.560;2023-04-26T01:50:17;100340.23;;;6.97;76.10
70521;BME280;58442;52.716;23.560;2023-04-26T01:52:21;100344.71;;;6.93;76.06
70521;BME280;58442;52.716;23.560;2023-04-26T01:54:23;100352.26;;;6.87;75.92
70521;BME280;58442;52.716;23.560;2023-04-26T01:56:31;100347.59;;;6.75;75.95
70521;BME280;58442;52.716;23.560;2023-04-26T01:58:32;100342.70;;;6.69;76.09
70521;BME280;58442;52.716;23.560;2023-04-26T02:00:36;100360.38;;;6.66;76.12
70521;BME280;58442;52.716;23.560;2023-04-26T02:02:38;100352.13;;;6.63;76.05
70521;BME280;58442;52.716;23.560;2023-04-26T02:04:46;100355.70;;;6.54;76.07
70521;BME280;58442;52.716;23.560;2023-04-26T02:06:47;100349.36;;;6.50;76.13
70521;BME280;58442;52.716;23.560;2023-04-26T02:08:49;100350.67;;;6.44;76.14
70521;BME280;58442;52.716;23.560;2023-04-26T02:10:53;100354.04;;;6.41;76.09
70521;BME280;58442;52.716;23.560;2023-04-26T02:13:01;100350.28;;;6.34;76.17
70521;BME280;58442;52.716;23.560;2023-04-26T02:15:02;100345.41;;;6.27;76.25
70521;BME280;58442;52.716;23.560;2023-04-26T02:17:05;100348.62;;;6.20;76.32
70521;BME280;58442;52.716;23.560;2023-04-26T02:19:06;100351.66;;;6.19;76.40
70521;BME280;58442;52.716;23.560;2023-04-26T02:21:16;100354.53;;;6.14;76.32
70521;BME280;58442;52.716;23.560;2023-04-26T02:23:18;100356.63;;;6.08;76.35
70521;BME280;58442;52.716;23.560;2023-04-26T02:25:20;100353.80;;;6.05;76.40
70521;BME280;58442;52.716;23.560;2023-04-26T02:27:23;100356.68;;;5.99;76.42
70521;BME280;58442;52.716;23.560;2023-04-26T02:29:31;100347.30;;;5.97;76.43
70521;BME280;58442;52.716;23.560;2023-04-26T02:31:33;100358.76;;;5.94;76.42
70521;BME280;58442;52.716;23.560;2023-04-26T02:33:35;100358.76;;;5.94;76.34
70521;BME280;58442;52.716;23.560;2023-04-26T02:35:39;100360.48;;;5.90;76.30
70521;BME280;58442;52.716;23.560;2023-04-26T02:37:46;100364.63;;;5.87;76.32
70521;BME280;58442;52.716;23.560;2023-04-26T02:39:52;100373.84;;;5.86;76.36
70521;BME280;58442;52.716;23.560;2023-04-26T02:41:55;100374.80;;;5.82;76.24
70521;BME280;58442;52.716;23.560;2023-04-26T02:43:58;100378.00;;;5.75;76.29
70521;BME280;58442;52.716;23.560;2023-04-26T02:46:01;100381.35;;;5.72;76.36
70521;BME280;58442;52.716;23.560;2023-04-26T02:48:03;100369.00;;;5.71;76.33
70521;BME280;58442;52.716;23.560;2023-04-26T02:50:06;100375.80;;;5.68;76.25
70521;BME280;58442;52.716;23.560;2023-04-26T02:52:09;100376.13;;;5.67;76.23
70521;BME280;58442;52.716;23.560;2023-04-26T02:54:15;100370.29;;;5.65;76.11
70521;BME280;58442;52.716;23.560;2023-04-26T02:56:17;100378.55;;;5.60;76.12
70521;BME280;58442;52.716;23.560;2023-04-26T02:58:19;100373.81;;;5.57;76.13
70521;BME280;58442;52.716;23.560;2023-04-26T03:00:22;100371.41;;;5.55;76.04
70521;BME280;58442;52.716;23.560;2023-04-26T03:02:30;100370.49;;;5.51;76.02
70521;BME280;58442;52.716;23.560;2023-04-26T03:04:33;100365.59;;;5.44;76.09
70521;BME280;58442;52.716;23.560;2023-04-26T03:06:36;100372.09;;;5.43;76.22
70521;BME280;58442;52.716;23.560;2023-04-26T03:08:37;100378.61;;;5.42;76.22
70521;BME280;58442;52.716;23.560;2023-04-26T03:10:46;100381.93;;;5.39;76.19
70521;BME280;58442;52.716;23.560;2023-04-26T03:12:47;100384.78;;;5.34;76.21
70521;BME280;58442;52.716;23.560;2023-04-26T03:14:49;100388.92;;;5.32;76.20
70521;BME280;58442;52.716;23.560;2023-04-26T03:16:50;100391.45;;;5.28;76.26
70521;BME280;58442;52.716;23.560;2023-04-26T03:19:01;100396.38;;;5.26;76.25
70521;BME280;58442;52.716;23.560;2023-04-26T03:21:03;100400.18;;;5.25;76.29
70521;BME280;58442;52.716;23.560;2023-04-26T03:23:05;100395.13;;;5.24;76.20
70521;BME280;58442;52.716;23.560;2023-04-26T03:25:07;100400.04;;;5.21;76.17
70521;BME280;58442;52.716;23.560;2023-04-26T03:27:15;100404.16;;;5.19;76.21
70521;BME280;58442;52.716;23.560;2023-04-26T03:29:17;100399.88;;;5.18;76.12
70521;BME280;58442;52.716;23.560;2023-04-26T03:31:19;100401.94;;;5.12;76.12
70521;BME280;58442;52.716;23.560;2023-04-26T03:33:22;100406.70;;;5.07;76.18
70521;BME280;58442;52.716;23.560;2023-04-26T03:35:30;100410.82;;;5.04;76.30
70521;BME280;58442;52.716;23.560;2023-04-26T03:37:32;100410.03;;;5.04;76.36
70521;BME280;58442;52.716;23.560;2023-04-26T03:39:33;100413.66;;;5.08;76.27
70521;BME280;58442;52.716;23.560;2023-04-26T03:41:35;100413.19;;;5.06;76.14
70521;BME280;58442;52.716;23.560;2023-04-26T03:43:45;100421.92;;;5.03;76.21
70521;BME280;58442;52.716;23.560;2023-04-26T03:45:48;100414.46;;;5.00;76.21
70521;BME280;58442;52.716;23.560;2023-04-26T03:47:50;100422.54;;;5.00;76.22
70521;BME280;58442;52.716;23.560;2023-04-26T03:49:52;100420.16;;;4.98;76.09
70521;BME280;58442;52.716;23.560;2023-04-26T03:52:00;100422.72;;;4.94;76.09
70521;BME280;58442;52.716;23.560;2023-04-26T03:54:02;100427.94;;;4.91;76.07
70521;BME280;58442;52.716;23.560;2023-04-26T03:56:03;100433.17;;;4.87;76.16
70521;BME280;58442;52.716;23.560;2023-04-26T03:58:05;100440.75;;;4.85;76.16
70521;BME280;58442;52.716;23.560;2023-04-26T04:00:15;100449.94;;;4.84;76.14
70521;BME280;58442;52.716;23.560;2023-04-26T04:02:17;100448.98;;;4.80;76.04
70521;BME280;58442;52.716;23.560;2023-04-26T04:04:18;100449.16;;;4.75;76.03
70521;BME280;58442;52.716;23.560;2023-04-26T04:06:20;100463.23;;;4.72;76.08
70521;BME280;58442;52.716;23.560;2023-04-26T04:08:30;100454.68;;;4.70;76.07
70521;BME280;58442;52.716;23.560;2023-04-26T04:10:32;100458.63;;;4.73;76.06
70521;BME280;58442;52.716;23.560;2023-04-26T04:12:34;100458.95;;;4.71;75.91
70521;BME280;58442;52.716;23.560;2023-04-26T04:14:36;100466.56;;;4.69;75.94
70521;BME280;58442;52.716;23.560;2023-04-26T04:16:45;100469.07;;;4.65;75.85
70521;BME280;58442;52.716;23.560;2023-04-26T04:18:47;100470.32;;;4.59;75.95
70521;BME280;58442;52.716;23.560;2023-04-26T04:20:49;100472.55;;;4.57;76.03
70521;BME280;58442;52.716;23.560;2023-04-26T04:22:51;100472.07;;;4.55;76.02
70521;BME280;58442;52.716;23.560;2023-04-26T04:25:00;100476.48;;;4.51;75.96
70521;BME280;58442;52.716;23.560;2023-04-26T04:27:05;100468.57;;;4.46;75.93
70521;BME280;58442;52.716;23.560;2023-04-26T04:29:07;100469.66;;;4.45;76.14
70521;BME280;58442;52.716;23.560;2023-04-26T04:31:09;100474.43;;;4.48;76.23
70521;BME280;58442;52.716;23.560;2023-04-26T04:33:15;100479.96;;;4.52;76.15
70521;BME280;58442;52.716;23.560;2023-04-26T04:35:18;100472.39;;;4.54;76.03
70521;BME280;58442;52.716;23.560;2023-04-26T04:37:21;100469.70;;;4.54;75.95
70521;BME280;58442;52.716;23.560;2023-04-26T04:39:22;100473.18;;;4.54;75.85
70521;BME280;58442;52.716;23.560;2023-04-26T04:41:30;100475.88;;;4.54;75.83
70521;BME280;58442;52.716;23.560;2023-04-26T04:43:32;100476.16;;;4.53;75.84
70521;BME280;58442;52.716;23.560;2023-04-26T04:45:34;100476.66;;;4.55;75.77
70521;BME280;58442;52.716;23.560;2023-04-26T04:47:38;100471.89;;;4.52;75.72
70521;BME280;58442;52.716;23.560;2023-04-26T04:49:45;100482.50;;;4.48;75.72
70521;BME280;58442;52.716;23.560;2023-04-26T04:51:47;100487.41;;;4.46;75.72
70521;BME280;58442;52.716;23.560;2023-04-26T04:53:49;100486.44;;;4.42;75.73
70521;BME280;58442;52.716;23.560;2023-04-26T04:55:51;100489.73;;;4.39;75.75
70521;BME280;58442;52.716;23.560;2023-04-26T04:58:00;100498.45;;;4.36;75.81
70521;BME280;58442;52.716;23.560;2023-04-26T05:00:02;100494.49;;;4.33;75.77
70521;BME280;58442;52.716;23.560;2023-04-26T05:02:12;100496.06;;;4.34;75.82
70521;BME280;58442;52.716;23.560;2023-04-26T05:04:15;100497.02;;;4.38;75.82
70521;BME280;58442;52.716;23.560;2023-04-26T05:06:17;100502.90;;;4.41;75.77
70521;BME280;58442;52.716;23.560;2023-04-26T05:08:18;100499.70;;;4.38;75.76
70521;BME280;58442;52.716;23.560;2023-04-26T05:10:20;100498.45;;;4.36;75.82
70521;BME280;58442;52.716;23.560;2023-04-26T05:12:21;100505.40;;;4.37;75.88
70521;BME280;58442;52.716;23.560;2023-04-26T05:14:31;100503.03;;;4.35;75.97
70521;BME280;58442;52.716;23.560;2023-04-26T05:16:33;100509.52;;;4.34;75.98
70521;BME280;58442;52.716;23.560;2023-04-26T05:18:35;100504.73;;;4.31;75.94
70521;BME280;58442;52.716;23.560;2023-04-26T05:20:38;100503.16;;;4.30;76.00
70521;BME280;58442;52.716;23.560;2023-04-26T05:22:46;100505.23;;;4.33;76.03
70521;BME280;58442;52.716;23.560;2023-04-26T05:24:48;100498.45;;;4.36;75.94
70521;BME280;58442;52.716;23.560;2023-04-26T05:26:49;100505.88;;;4.39;75.91
70521;BME280;58442;52.716;23.560;2023-04-26T05:28:51;100504.00;;;4.39;75.87
70521;BME280;58442;52.716;23.560;2023-04-26T05:31:01;100505.59;;;4.41;75.87
70521;BME280;58442;52.716;23.560;2023-04-26T05:33:04;100506.70;;;4.39;75.85
70521;BME280;58442;52.716;23.560;2023-04-26T05:35:06;100513.66;;;4.41;75.89
70521;BME280;58442;52.716;23.560;2023-04-26T05:37:08;100507.95;;;4.42;75.90
70521;BME280;58442;52.716;23.560;2023-04-26T05:39:16;100504.16;;;4.43;75.93
70521;BME280;58442;52.716;23.560;2023-04-26T05:41:21;100508.94;;;4.46;75.95
70521;BME280;58442;52.716;23.560;2023-04-26T05:43:22;100511.78;;;4.50;75.90
70521;BME280;58442;52.716;23.560;2023-04-26T05:45:24;100505.29;;;4.51;75.83
70521;BME280;58442;52.716;23.560;2023-04-26T05:47:31;100508.95;;;4.55;75.86
70521;BME280;58442;52.716;23.560;2023-04-26T05:49:32;100516.06;;;4.59;75.83
70521;BME280;58442;52.716;23.560;2023-04-26T05:51:34;100517.84;;;4.64;75.64
70521;BME280;58442;52.716;23.560;2023-04-26T05:53:36;100519.93;;;4.67;75.56
70521;BME280;58442;52.716;23.560;2023-04-26T05:55:46;100521.97;;;4.70;75.51
70521;BME280;58442;52.716;23.560;2023-04-26T05:57:48;100515.01;;;4.69;75.45
70521;BME280;58442;52.716;23.560;2023-04-26T05:59:50;100519.61;;;4.69;75.41
70521;BME280;58442;52.716;23.560;2023-04-26T06:01:52;100526.88;;;4.68;75.47
70521;BME280;58442;52.716;23.560;2023-04-26T06:04:01;100529.26;;;4.70;75.45
70521;BME280;58442;52.716;23.560;2023-04-26T06:06:03;100533.85;;;4.69;75.45
70521;BME280;58442;52.716;23.560;2023-04-26T06:08:05;100527.67;;;4.69;75.47
70521;BME280;58442;52.716;23.560;2023-04-26T06:10:08;100537.02;;;4.71;75.49
70521;BME280;58442;52.716;23.560;2023-04-26T06:12:16;100532.10;;;4.73;75.42
70521;BME280;58442;52.716;23.560;2023-04-26T06:14:18;100534.80;;;4.73;75.21
70521;BME280;58442;52.716;23.560;2023-04-26T06:16:21;100539.73;;;4.80;75.38
70521;BME280;58442;52.716;23.560;2023-04-26T06:18:22;100539.73;;;4.80;75.33
70521;BME280;58442;52.716;23.560;2023-04-26T06:20:32;100545.11;;;4.80;75.43
70521;BME280;58442;52.716;23.560;2023-04-26T06:22:33;100545.89;;;4.80;75.52
70521;BME280;58442;52.716;23.560;2023-04-26T06:24:35;100550.03;;;4.86;75.62
70521;BME280;58442;52.716;23.560;2023-04-26T06:26:36;100551.80;;;4.91;75.54
70521;BME280;58442;52.716;23.560;2023-04-26T06:28:46;100543.58;;;4.96;75.47
70521;BME280;58442;52.716;23.560;2023-04-26T06:30:47;100551.81;;;5.00;75.46
70521;BME280;58442;52.716;23.560;2023-04-26T06:32:49;100548.51;;;5.03;75.42
70521;BME280;58442;52.716;23.560;2023-04-26T06:34:50;100551.84;;;5.08;75.40
70521;BME280;58442;52.716;23.560;2023-04-26T06:37:01;100551.67;;;5.13;75.34
70521;BME280;58442;52.716;23.560;2023-04-26T06:39:02;100556.13;;;5.18;75.34
70521;BME280;58442;52.716;23.560;2023-04-26T06:41:04;100558.03;;;5.26;75.30
70521;BME280;58442;52.716;23.560;2023-04-26T06:43:05;100552.82;;;5.30;75.20
70521;BME280;58442;52.716;23.560;2023-04-26T06:45:16;100555.65;;;5.33;75.16
70521;BME280;58442;52.716;23.560;2023-04-26T06:47:19;100551.24;;;5.37;75.10
70521;BME280;58442;52.716;23.560;2023-04-26T06:49:20;100551.88;;;5.43;75.04
70521;BME280;58442;52.716;23.560;2023-04-26T06:51:22;100556.46;;;5.51;74.96
70521;BME280;58442;52.716;23.560;2023-04-26T06:53:31;100555.34;;;5.61;74.88
70521;BME280;58442;52.716;23.560;2023-04-26T06:55:33;100559.47;;;5.67;74.86
70521;BME280;58442;52.716;23.560;2023-04-26T06:57:35;100560.26;;;5.67;74.79
70521;BME280;58442;52.716;23.560;2023-04-26T06:59:37;100571.51;;;5.69;74.85
70521;BME280;58442;52.716;23.560;2023-04-26T07:01:46;100580.23;;;5.75;74.87
70521;BME280;58442;52.716;23.560;2023-04-26T07:03:47;100572.47;;;5.73;74.77
70521;BME280;58442;52.716;23.560;2023-04-26T07:05:49;100582.46;;;5.73;74.73
70521;BME280;58442;52.716;23.560;2023-04-26T07:07:51;100578.19;;;5.72;74.78
70521;BME280;58442;52.716;23.560;2023-04-26T07:10:02;100580.09;;;5.71;74.76
70521;BME280;58442;52.716;23.560;2023-04-26T07:12:03;100584.70;;;5.71;74.86
70521;BME280;58442;52.716;23.560;2023-04-26T07:14:05;100585.16;;;5.73;74.86
70521;BME280;58442;52.716;23.560;2023-04-26T07:16:06;100583.89;;;5.79;74.83
70521;BME280;58442;52.716;23.560;2023-04-26T07:18:16;100587.52;;;5.83;74.82
70521;BME280;58442;52.716;23.560;2023-04-26T07:20:17;100588.80;;;5.86;74.81
70521;BME280;58442;52.716;23.560;2023-04-26T07:22:24;100578.02;;;5.86;74.87
70521;BME280;58442;52.716;23.560;2023-04-26T07:24:25;100585.00;;;5.87;74.80
70521;BME280;58442;52.716;23.560;2023-04-26T07:26:31;100595.45;;;5.88;74.84
70521;BME280;58442;52.716;23.560;2023-04-26T07:28:32;100588.35;;;5.92;74.85
70521;BME280;58442;52.716;23.560;2023-04-26T07:30:34;100586.29;;;5.98;74.76
70521;BME280;58442;52.716;23.560;2023-04-26T07:32:36;100590.87;;;6.06;74.78
70521;BME280;58442;52.716;23.560;2023-04-26T07:34:46;100588.48;;;6.13;74.77
70521;BME280;58442;52.716;23.560;2023-04-26T07:36:47;100593.84;;;6.22;74.69
70521;BME280;58442;52.716;23.560;2023-04-26T07:38:49;100600.34;;;6.29;74.55
70521;BME280;58442;52.716;23.560;2023-04-26T07:40:52;100594.31;;;6.33;74.46
70521;BME280;58442;52.716;23.560;2023-04-26T07:43:01;100604.61;;;6.39;74.42
70521;BME280;58442;52.716;23.560;2023-04-26T07:45:03;100604.91;;;6.46;74.36
70521;BME280;58442;52.716;23.560;2023-04-26T07:47:10;100608.69;;;6.54;74.35
70521;BME280;58442;52.716;23.560;2023-04-26T07:49:12;100614.70;;;6.60;74.22
70521;BME280;58442;52.716;23.560;2023-04-26T07:51:16;100612.93;;;6.64;74.15
70521;BME280;58442;52.716;23.560;2023-04-26T07:53:17;100613.55;;;6.69;73.81
70521;BME280;58442;52.716;23.560;2023-04-26T07:55:19;100621.48;;;6.74;73.94
70521;BME280;58442;52.716;23.560;2023-04-26T07:57:21;100621.77;;;6.81;73.90
70521;BME280;58442;52.716;23.560;2023-04-26T07:59:31;100619.48;;;6.92;73.86
70521;BME280;58442;52.716;23.560;2023-04-26T08:01:32;100606.41;;;7.03;73.80
70521;BME280;58442;52.716;23.560;2023-04-26T08:03:34;100607.63;;;7.14;73.65
70521;BME280;58442;52.716;23.560;2023-04-26T08:05:36;100614.55;;;7.24;73.62
70521;BME280;58442;52.716;23.560;2023-04-26T08:07:46;100625.30;;;7.32;73.50
70521;BME280;58442;52.716;23.560;2023-04-26T08:09:48;100621.30;;;7.38;73.39
70521;BME280;58442;52.716;23.560;2023-04-26T08:11:49;100627.13;;;7.49;73.36
70521;BME280;58442;52.716;23.560;2023-04-26T08:13:50;100615.25;;;7.62;73.21
70521;BME280;58442;52.716;23.560;2023-04-26T08:16:01;100621.19;;;7.77;72.99
70521;BME280;58442;52.716;23.560;2023-04-26T08:18:02;100624.26;;;7.87;72.75
70521;BME280;58442;52.716;23.560;2023-04-26T08:20:04;100614.03;;;7.93;72.63
70521;BME280;58442;52.716;23.560;2023-04-26T08:22:06;100619.36;;;8.02;72.55
70521;BME280;58442;52.716;23.560;2023-04-26T08:24:15;100618.82;;;8.08;72.46
70521;BME280;58442;52.716;23.560;2023-04-26T08:26:17;100621.91;;;8.19;72.46
70521;BME280;58442;52.716;23.560;2023-04-26T08:28:18;100623.20;;;8.34;72.32
70521;BME280;58442;52.716;23.560;2023-04-26T08:30:21;100625.18;;;8.45;72.17
70521;BME280;58442;52.716;23.560;2023-04-26T08:32:30;100629.14;;;8.60;72.01
70521;BME280;58442;52.716;23.560;2023-04-26T08:34:34;100618.55;;;8.67;71.70
70521;BME280;58442;52.716;23.560;2023-04-26T08:36:36;100618.99;;;8.69;71.62
70521;BME280;58442;52.716;23.560;2023-04-26T08:38:38;100616.86;;;8.75;71.49
70521;BME280;58442;52.716;23.560;2023-04-26T08:40:45;100621.72;;;8.82;71.42
70521;BME280;58442;52.716;23.560;2023-04-26T08:42:47;100623.09;;;8.88;71.31
70521;BME280;58442;52.716;23.560;2023-04-26T08:44:50;100620.26;;;8.96;71.01
70521;BME280;58442;52.716;23.560;2023-04-26T08:47:02;100622.05;;;9.04;70.91
70521;BME280;58442;52.716;23.560;2023-04-26T08:49:16;100624.67;;;9.13;70.75
70521;BME280;58442;52.716;23.560;2023-04-26T08:51:22;100618.68;;;9.20;70.60
70521;BME280;58442;52.716;23.560;2023-04-26T08:53:24;100620.35;;;9.24;70.51
70521;BME280;58442;52.716;23.560;2023-04-26T08:55:26;100621.48;;;9.23;70.34
70521;BME280;58442;52.716;23.560;2023-04-26T08:57:30;100621.93;;;9.25;70.39
70521;BME280;58442;52.716;23.560;2023-04-26T08:59:37;100616.50;;;9.25;70.37
70521;BME280;58442;52.716;23.560;2023-04-26T09:01:39;100622.39;;;9.27;70.29
70521;BME280;58442;52.716;23.560;2023-04-26T09:03:41;100615.93;;;9.32;70.19
70521;BME280;58442;52.716;23.560;2023-04-26T09:05:43;100616.05;;;9.36;70.09
70521;BME280;58442;52.716;23.560;2023-04-26T09:07:59;100623.62;;;9.42;69.85
70521;BME280;58442;52.716;23.560;2023-04-26T09:10:17;100627.98;;;9.47;69.69
70521;BME280;58442;52.716;23.560;2023-04-26T09:12:22;100626.53;;;9.49;69.64
70521;BME280;58442;52.716;23.560;2023-04-26T09:14:23;100631.62;;;9.51;69.54
70521;BME280;58442;52.716;23.560;2023-04-26T09:16:34;100629.11;;;9.58;69.40
70521;BME280;58442;52.716;23.560;2023-04-26T09:23:10;100631.30;;;9.80;69.09
70521;BME280;58442;52.716;23.560;2023-04-26T09:25:12;100629.93;;;9.86;68.99
70521;BME280;58442;52.716;23.560;2023-04-26T09:27:16;100617.02;;;9.96;68.71
70521;BME280;58442;52.716;23.560;2023-04-26T09:29:18;100622.64;;;10.03;68.56
70521;BME280;58442;52.716;23.560;2023-04-26T09:31:35;100622.84;;;10.10;68.40
70521;BME280;58442;52.716;23.560;2023-04-26T09:36:11;100629.06;;;10.10;68.01
70521;BME280;58442;52.716;23.560;2023-04-26T09:38:16;100630.44;;;10.04;67.81
70521;BME280;58442;52.716;23.560;2023-04-26T09:40:20;100625.68;;;10.01;67.53
70521;BME280;58442;52.716;23.560;2023-04-26T09:42:21;100631.46;;;10.00;67.58
70521;BME280;58442;52.716;23.560;2023-04-26T09:44:24;100626.47;;;10.02;67.36
70521;BME280;58442;52.716;23.560;2023-04-26T09:46:26;100627.80;;;10.08;67.12
70521;BME280;58442;52.716;23.560;2023-04-26T09:48:29;100630.63;;;10.11;66.92
70521;BME280;58442;52.716;23.560;2023-04-26T09:50:31;100628.34;;;10.13;66.93
70521;BME280;58442;52.716;23.560;2023-04-26T09:52:42;100626.69;;;10.09;66.91
70521;BME280;58442;52.716;23.560;2023-04-26T09:54:46;100628.08;;;10.03;67.08
70521;BME280;58442;52.716;23.560;2023-04-26T09:59:03;100634.97;;;10.00;66.74
70521;BME280;58442;52.716;23.560;2023-04-26T10:01:13;100622.17;;;10.01;66.52
70521;BME280;58442;52.716;23.560;2023-04-26T10:03:21;100629.45;;;9.97;66.54
70521;BME280;58442;52.716;23.560;2023-04-26T10:05:23;100637.95;;;9.95;66.42
70521;BME280;58442;52.716;23.560;2023-04-26T10:07:26;100622.69;;;9.91;66.30
70521;BME280;58442;52.716;23.560;2023-04-26T10:09:27;100625.40;;;9.91;66.34
70521;BME280;58442;52.716;23.560;2023-04-26T10:11:32;100628.55;;;9.93;66.27
70521;BME280;58442;52.716;23.560;2023-04-26T10:13:34;100627.88;;;9.96;66.14
70521;BME280;58442;52.716;23.560;2023-04-26T10:15:36;100623.43;;;10.03;66.16
70521;BME280;58442;52.716;23.560;2023-04-26T10:17:38;100632.75;;;10.18;65.86
70521;BME280;58442;52.716;23.560;2023-04-26T10:19:47;100625.26;;;10.27;65.70
70521;BME280;58442;52.716;23.560;2023-04-26T10:21:55;100625.90;;;10.36;65.59
70521;BME280;58442;52.716;23.560;2023-04-26T10:23:59;100617.58;;;10.45;65.54
70521;BME280;58442;52.716;23.560;2023-04-26T10:26:01;100623.20;;;10.52;65.41
70521;BME280;58442;52.716;23.560;2023-04-26T10:28:03;100627.24;;;10.58;65.22
70521;BME280;58442;52.716;23.560;2023-04-26T10:30:06;100632.31;;;10.60;64.87
70521;BME280;58442;52.716;23.560;2023-04-26T10:32:08;100630.74;;;10.59;64.64
70521;BME280;58442;52.716;23.560;2023-04-26T10:34:21;100622.59;;;10.59;64.39
70521;BME280;58442;52.716;23.560;2023-04-26T10:36:23;100630.40;;;10.60;63.95
70521;BME280;58442;52.716;23.560;2023-04-26T10:38:24;100622.34;;;10.64;63.76
70521;BME280;58442;52.716;23.560;2023-04-26T10:40:31;100627.16;;;10.71;63.62
70521;BME280;58442;52.716;23.560;2023-04-26T10:42:33;100625.05;;;10.80;63.14
70521;BME280;58442;52.716;23.560;2023-04-26T10:44:39;100626.73;;;10.84;63.06
70521;BME280;58442;52.716;23.560;2023-04-26T10:46:41;100639.17;;;10.85;62.86
70521;BME280;58442;52.716;23.560;2023-04-26T10:48:43;100635.14;;;10.79;62.58
70521;BME280;58442;52.716;23.560;2023-04-26T10:53:03;100644.23;;;10.55;62.60
70521;BME280;58442;52.716;23.560;2023-04-26T10:55:08;100647.83;;;10.44;62.76
70521;BME280;58442;52.716;23.560;2023-04-26T10:57:10;100643.78;;;10.37;62.76